Time;durP1;ratioP1;P1;durP2;ratioP2;P2;SDS_P1;SDS_P2;PMS_P1;PMS_P2;Temp;Humidity;BMP_temperature;BMP_pressure;BME280_temperature;BME280_humidity;BME280_pressure;Samples;Min_cycle;Max_cycle;Signal;HPM_P1;HPM_P2
2022/10/13 00:02:24;;;;;;;3.90;3.60;;;;;;;;;;5074458;28;20941;-53
2022/10/13 00:04:51;;;;;;;4.27;3.60;;;;;;;;;;5075175;28;20552;-57
2022/10/13 00:07:18;;;;;;;6.40;4.80;;;;;;;;;;5075197;28;21010;-55
2022/10/13 00:09:45;;;;;;;4.90;4.20;;;;;;;;;;5075256;28;20186;-55
2022/10/13 00:12:14;;;;;;;7.80;3.80;;;;;;;;;;5075027;28;21044;-56
2022/10/13 00:14:40;;;;;;;6.35;4.13;;;;;;;;;;5075150;28;20547;-55
2022/10/13 00:17:07;;;;;;;7.22;4.35;;;;;;;;;;5074908;28;20219;-57
2022/10/13 00:19:35;;;;;;;6.10;4.50;;;;;;;;;;5075144;28;20221;-56
2022/10/13 00:22:01;;;;;;;11.87;4.43;;;;;;;;;;5074886;28;20661;-55
2022/10/13 00:24:28;;;;;;;6.53;4.38;;;;;;;;;;5074996;28;20483;-56
2022/10/13 00:26:55;;;;;;;4.97;4.28;;;;;;;;;;5074914;28;20197;-54
2022/10/13 00:29:24;;;;;;;8.77;4.60;;;;;;;;;;5074732;28;20196;-56
2022/10/13 00:31:51;;;;;;;4.45;3.92;;;;;;;;;;5075219;28;20217;-52
2022/10/13 00:34:17;;;;;;;6.95;4.30;;;;;;;;;;5074654;28;20649;-54
2022/10/13 00:36:44;;;;;;;7.88;4.70;;;;;;;;;;5074655;28;20223;-55
2022/10/13 00:39:13;;;;;;;5.22;4.35;;;;;;;;;;5074635;28;20232;-55
2022/10/13 00:41:40;;;;;;;7.75;4.40;;;;;;;;;;5074539;28;20235;-52
2022/10/13 00:44:26;;;;;;;8.93;5.03;;;;;;;;;;5074471;28;20189;-52
2022/10/13 00:46:55;;;;;;;7.68;4.72;;;;;;;;;;5074333;28;20471;-53
2022/10/13 00:49:22;;;;;;;12.48;4.60;;;;;;;;;;5074485;28;20185;-53
2022/10/13 00:51:50;;;;;;;6.10;4.22;;;;;;;;;;5074361;28;20193;-53
2022/10/13 00:54:18;;;;;;;8.70;4.13;;;;;;;;;;5074331;28;20189;-53
2022/10/13 00:56:46;;;;;;;9.07;5.38;;;;;;;;;;5074017;28;20490;-52
2022/10/13 00:59:17;;;;;;;6.90;5.25;;;;;;;;;;5074389;28;20193;-52
2022/10/13 01:01:44;;;;;;;5.95;4.75;;;;;;;;;;5074276;28;20288;-53
2022/10/13 01:04:12;;;;;;;7.63;4.47;;;;;;;;;;5074183;28;20185;-51
2022/10/13 01:06:40;;;;;;;6.60;4.20;;;;;;;;;;5074086;28;20284;-50
2022/10/13 01:09:07;;;;;;;4.77;4.37;;;;;;;;;;5073872;28;20188;-55
2022/10/13 01:11:45;;;;;;;11.93;4.97;;;;;;;;;;5073877;28;20482;-55
2022/10/13 01:14:18;;;;;;;5.15;4.65;;;;;;;;;;5073637;28;20657;-52
2022/10/13 01:16:48;;;;;;;4.72;4.30;;;;;;;;;;5073847;28;20192;-51
2022/10/13 01:19:26;;;;;;;9.30;4.63;;;;;;;;;;5074102;28;20195;-55
2022/10/13 01:21:59;;;;;;;7.55;4.57;;;;;;;;;;5073697;28;20197;-55
2022/10/13 01:24:30;;;;;;;6.60;4.55;;;;;;;;;;5073894;28;20189;-53
2022/10/13 01:27:11;;;;;;;5.70;4.35;;;;;;;;;;5073636;28;20657;-55
2022/10/13 01:30:05;;;;;;;6.50;5.00;;;;;;;;;;5073637;28;20625;-52
2022/10/13 01:32:37;;;;;;;5.30;4.20;;;;;;;;;;5073777;28;20224;-50
2022/10/13 01:35:08;;;;;;;15.02;5.40;;;;;;;;;;5073701;28;20451;-52
2022/10/13 01:37:38;;;;;;;8.93;4.47;;;;;;;;;;5073520;28;20308;-52
2022/10/13 01:40:07;;;;;;;4.57;3.97;;;;;;;;;;5073323;28;20712;-52
2022/10/13 01:42:36;;;;;;;4.93;4.10;;;;;;;;;;5073301;28;20869;-51
2022/10/13 01:45:03;;;;;;;6.35;5.00;;;;;;;;;;5073576;28;20295;-54
2022/10/13 01:47:31;;;;;;;6.00;4.32;;;;;;;;;;5073319;28;20774;-55
2022/10/13 01:50:00;;;;;;;7.63;4.83;;;;;;;;;;5073352;28;20189;-56
2022/10/13 01:52:31;;;;;;;6.90;4.53;;;;;;;;;;5073284;28;20458;-54
2022/10/13 01:55:05;;;;;;;8.93;5.35;;;;;;;;;;5073241;28;20197;-56
2022/10/13 01:57:33;;;;;;;6.43;4.78;;;;;;;;;;5073380;28;20224;-56
2022/10/13 02:00:02;;;;;;;9.52;4.95;;;;;;;;;;5073216;28;20192;-55
2022/10/13 02:02:32;;;;;;;7.45;5.55;;;;;;;;;;5073117;28;20196;-55
2022/10/13 02:05:07;;;;;;;9.05;5.47;;;;;;;;;;5073133;28;20279;-56
2022/10/13 02:07:36;;;;;;;6.22;4.72;;;;;;;;;;5073019;28;20204;-54
2022/10/13 02:10:06;;;;;;;7.18;5.25;;;;;;;;;;5073136;28;20436;-56
2022/10/13 02:12:35;;;;;;;9.52;5.00;;;;;;;;;;5073172;28;20282;-56
2022/10/13 02:15:03;;;;;;;7.28;5.70;;;;;;;;;;5073050;28;20195;-55
2022/10/13 02:17:31;;;;;;;6.40;5.05;;;;;;;;;;5072925;28;20213;-56
2022/10/13 02:19:58;;;;;;;8.40;5.10;;;;;;;;;;5072795;28;20648;-59
2022/10/13 02:22:29;;;;;;;7.28;5.40;;;;;;;;;;5073201;28;20211;-55
2022/10/13 02:24:56;;;;;;;8.02;5.50;;;;;;;;;;5072191;28;20661;-55
2022/10/13 02:27:23;;;;;;;8.80;5.03;;;;;;;;;;5072845;28;20193;-55
2022/10/13 02:29:51;;;;;;;9.85;5.20;;;;;;;;;;5072885;28;20618;-56
2022/10/13 02:32:18;;;;;;;8.77;5.50;;;;;;;;;;5072794;28;20192;-55
2022/10/13 02:34:45;;;;;;;8.48;5.30;;;;;;;;;;5072683;28;20189;-55
2022/10/13 02:37:12;;;;;;;8.27;5.40;;;;;;;;;;5072838;28;20190;-55
2022/10/13 02:39:41;;;;;;;11.10;5.65;;;;;;;;;;5072788;28;20191;-56
2022/10/13 02:42:08;;;;;;;10.10;5.40;;;;;;;;;;5072743;28;20189;-56
2022/10/13 02:44:35;;;;;;;9.32;5.85;;;;;;;;;;5072732;28;20197;-56
2022/10/13 02:47:02;;;;;;;14.57;5.15;;;;;;;;;;5072456;28;20283;-58
2022/10/13 02:49:29;;;;;;;7.15;5.65;;;;;;;;;;5072515;28;20203;-56
2022/10/13 02:51:56;;;;;;;11.50;6.57;;;;;;;;;;5072700;28;20189;-55
2022/10/13 02:54:23;;;;;;;11.68;5.25;;;;;;;;;;5072855;28;20606;-53
2022/10/13 02:56:51;;;;;;;7.28;5.20;;;;;;;;;;5072813;28;20192;-56
2022/10/13 02:59:18;;;;;;;10.30;6.28;;;;;;;;;;5072413;28;20316;-55
2022/10/13 03:01:45;;;;;;;8.77;5.20;;;;;;;;;;5072377;28;20189;-56
2022/10/13 03:04:12;;;;;;;8.55;5.75;;;;;;;;;;5072689;28;20285;-57
2022/10/13 03:06:39;;;;;;;8.38;5.30;;;;;;;;;;5072573;28;20244;-57
2022/10/13 03:09:06;;;;;;;7.32;5.85;;;;;;;;;;5072296;28;20280;-55
2022/10/13 03:11:33;;;;;;;8.27;5.13;;;;;;;;;;5072530;28;20538;-56
2022/10/13 03:14:02;;;;;;;11.70;5.70;;;;;;;;;;5072405;28;20549;-56
2022/10/13 03:16:29;;;;;;;14.63;5.70;;;;;;;;;;5072321;28;20644;-55
2022/10/13 03:18:56;;;;;;;9.63;5.60;;;;;;;;;;5072321;28;20227;-56
2022/10/13 03:21:23;;;;;;;12.63;6.03;;;;;;;;;;5072688;28;20277;-56
2022/10/13 03:23:50;;;;;;;5.90;5.00;;;;;;;;;;5072293;28;20218;-55
2022/10/13 03:26:17;;;;;;;6.63;5.68;;;;;;;;;;5072335;28;20190;-56
2022/10/13 03:28:44;;;;;;;9.80;5.65;;;;;;;;;;5072244;28;20228;-57
2022/10/13 03:31:12;;;;;;;14.02;8.30;;;;;;;;;;5072137;28;20189;-57
2022/10/13 03:33:40;;;;;;;12.82;5.85;;;;;;;;;;5072400;28;20189;-56
2022/10/13 03:36:07;;;;;;;9.07;5.03;;;;;;;;;;5072409;28;20280;-55
2022/10/13 03:38:35;;;;;;;6.25;5.05;;;;;;;;;;5075689;28;20313;-56
2022/10/13 03:41:05;;;;;;;9.80;5.60;;;;;;;;;;5076482;28;20211;-54
2022/10/13 03:43:32;;;;;;;14.90;6.80;;;;;;;;;;5075644;28;20188;-56
2022/10/13 03:46:00;;;;;;;7.80;5.70;;;;;;;;;;5075759;28;20537;-56
2022/10/13 03:48:29;;;;;;;6.15;5.55;;;;;;;;;;5075388;28;20221;-54
2022/10/13 03:50:56;;;;;;;8.75;5.00;;;;;;;;;;5075609;28;20217;-55
2022/10/13 03:53:23;;;;;;;9.18;6.72;;;;;;;;;;5075585;28;20603;-55
2022/10/13 03:55:51;;;;;;;27.85;16.65;;;;;;;;;;5075364;28;20197;-56
2022/10/13 03:58:18;;;;;;;25.30;16.40;;;;;;;;;;5075481;28;20267;-55
2022/10/13 04:00:45;;;;;;;9.95;7.85;;;;;;;;;;5075486;28;20304;-57
2022/10/13 04:03:12;;;;;;;19.00;5.95;;;;;;;;;;5075308;28;20700;-54
2022/10/13 04:05:40;;;;;;;6.68;4.90;;;;;;;;;;5075320;28;20280;-56
2022/10/13 04:08:07;;;;;;;9.88;5.20;;;;;;;;;;5075213;28;20196;-57
2022/10/13 04:10:34;;;;;;;13.80;7.80;;;;;;;;;;5075082;28;20278;-56
2022/10/13 04:13:01;;;;;;;14.25;9.55;;;;;;;;;;5075426;28;20201;-55
2022/10/13 04:15:28;;;;;;;20.73;6.88;;;;;;;;;;5075288;28;20537;-55
2022/10/13 04:17:55;;;;;;;6.90;5.53;;;;;;;;;;5075076;28;20304;-57
2022/10/13 04:20:22;;;;;;;9.33;5.63;;;;;;;;;;5074979;28;20193;-56
2022/10/13 04:22:50;;;;;;;8.05;5.10;;;;;;;;;;5074933;28;20447;-57
2022/10/13 04:25:18;;;;;;;8.05;5.03;;;;;;;;;;5074829;28;20288;-51
2022/10/13 04:27:46;;;;;;;8.82;5.60;;;;;;;;;;5074714;28;20661;-53
2022/10/13 04:30:14;;;;;;;8.98;5.55;;;;;;;;;;5074803;28;20555;-55
2022/10/13 04:32:40;;;;;;;10.02;6.35;;;;;;;;;;5074805;28;20192;-55
2022/10/13 04:35:08;;;;;;;7.57;5.57;;;;;;;;;;5074683;28;20196;-55
2022/10/13 04:37:35;;;;;;;10.77;6.55;;;;;;;;;;5074562;28;20193;-56
2022/10/13 04:40:03;;;;;;;6.95;4.85;;;;;;;;;;5074417;28;20328;-55
2022/10/13 04:42:30;;;;;;;10.35;5.60;;;;;;;;;;5074429;28;20625;-56
2022/10/13 04:44:57;;;;;;;7.57;5.60;;;;;;;;;;5074556;28;20641;-53
2022/10/13 04:47:24;;;;;;;8.27;5.05;;;;;;;;;;5074251;28;20222;-56
2022/10/13 04:49:51;;;;;;;6.57;5.40;;;;;;;;;;5074005;28;20197;-56
2022/10/13 04:52:18;;;;;;;10.43;5.05;;;;;;;;;;5074138;28;20196;-52
2022/10/13 04:54:45;;;;;;;11.60;5.32;;;;;;;;;;5074333;28;20193;-57
2022/10/13 04:57:13;;;;;;;11.18;6.70;;;;;;;;;;5074329;28;20276;-57
2022/10/13 04:59:40;;;;;;;8.65;5.95;;;;;;;;;;5074077;28;20640;-57
2022/10/13 05:02:08;;;;;;;8.18;5.95;;;;;;;;;;5074291;28;20196;-58
2022/10/13 05:04:35;;;;;;;9.75;5.90;;;;;;;;;;5073976;28;20197;-55
2022/10/13 05:07:02;;;;;;;12.23;6.78;;;;;;;;;;5073902;28;20193;-57
2022/10/13 05:09:29;;;;;;;9.35;5.57;;;;;;;;;;5073844;28;20193;-56
2022/10/13 05:11:56;;;;;;;9.32;6.35;;;;;;;;;;5074046;28;20203;-55
2022/10/13 05:14:24;;;;;;;10.88;6.18;;;;;;;;;;5073915;28;20197;-57
2022/10/13 05:16:51;;;;;;;109.82;56.22;;;;;;;;;;5073811;28;20196;-57
2022/10/13 05:19:19;;;;;;;12.18;7.75;;;;;;;;;;5073568;28;20240;-55
2022/10/13 05:21:46;;;;;;;7.20;6.38;;;;;;;;;;5073992;28;20197;-57
2022/10/13 05:24:14;;;;;;;10.10;6.20;;;;;;;;;;5073852;28;20195;-57
2022/10/13 05:26:42;;;;;;;12.82;5.93;;;;;;;;;;5073765;28;20451;-56
2022/10/13 05:29:09;;;;;;;9.00;5.47;;;;;;;;;;5073587;28;20329;-55
2022/10/13 05:31:37;;;;;;;7.95;5.15;;;;;;;;;;5073450;28;20288;-57
2022/10/13 05:34:04;;;;;;;14.52;6.28;;;;;;;;;;5073339;28;20189;-57
2022/10/13 05:36:32;;;;;;;11.82;9.38;;;;;;;;;;5073452;28;20195;-54
2022/10/13 05:39:00;;;;;;;6.90;5.60;;;;;;;;;;5073440;28;20311;-54
2022/10/13 05:41:28;;;;;;;8.40;6.10;;;;;;;;;;5073440;28;20530;-56
2022/10/13 05:43:57;;;;;;;9.80;5.97;;;;;;;;;;5073237;28;20247;-55
2022/10/13 05:46:24;;;;;;;12.75;7.68;;;;;;;;;;5072892;28;20191;-57
2022/10/13 05:48:53;;;;;;;12.10;9.50;;;;;;;;;;5073041;28;20217;-56
2022/10/13 05:51:23;;;;;;;13.27;9.20;;;;;;;;;;5073175;28;20970;-55
2022/10/13 05:53:51;;;;;;;22.10;11.07;;;;;;;;;;5073176;28;20283;-57
2022/10/13 05:56:20;;;;;;;15.43;10.55;;;;;;;;;;5073047;28;20740;-54
2022/10/13 05:58:49;;;;;;;21.35;10.35;;;;;;;;;;5072585;28;20209;-57
2022/10/13 06:01:17;;;;;;;18.92;11.43;;;;;;;;;;5073085;28;20204;-57
2022/10/13 06:03:45;;;;;;;15.52;11.15;;;;;;;;;;5073060;28;20548;-56
2022/10/13 06:06:13;;;;;;;13.00;9.05;;;;;;;;;;5072858;28;20223;-57
2022/10/13 06:08:41;;;;;;;16.95;9.45;;;;;;;;;;5072878;28;20284;-57
2022/10/13 06:11:08;;;;;;;11.52;9.25;;;;;;;;;;5072841;28;20200;-55
2022/10/13 06:13:36;;;;;;;13.48;9.35;;;;;;;;;;5072744;28;20234;-57
2022/10/13 06:16:03;;;;;;;16.00;9.73;;;;;;;;;;5073073;28;20185;-55
2022/10/13 06:18:29;;;;;;;15.85;9.52;;;;;;;;;;5072829;28;20191;-57
2022/10/13 06:20:56;;;;;;;13.02;9.20;;;;;;;;;;5072808;28;20272;-57
2022/10/13 06:23:25;;;;;;;14.45;10.18;;;;;;;;;;5072792;28;20193;-57
2022/10/13 06:25:52;;;;;;;14.05;8.55;;;;;;;;;;5072595;28;20195;-57
2022/10/13 06:28:20;;;;;;;13.30;9.82;;;;;;;;;;5072466;28;20293;-56
2022/10/13 06:30:52;;;;;;;11.88;8.52;;;;;;;;;;5072744;28;20243;-58
2022/10/13 06:33:19;;;;;;;13.15;9.15;;;;;;;;;;5072693;28;20197;-56
2022/10/13 06:35:46;;;;;;;10.35;8.00;;;;;;;;;;5072590;28;20618;-55
2022/10/13 06:38:13;;;;;;;11.25;8.48;;;;;;;;;;5072543;28;20195;-57
2022/10/13 06:40:42;;;;;;;12.85;8.63;;;;;;;;;;5072331;28;20217;-57
2022/10/13 06:43:09;;;;;;;10.07;7.67;;;;;;;;;;5072534;28;20391;-56
2022/10/13 06:45:36;;;;;;;9.60;8.40;;;;;;;;;;5072657;28;20892;-56
2022/10/13 06:48:03;;;;;;;18.55;9.73;;;;;;;;;;5072432;28;20481;-52
2022/10/13 06:50:31;;;;;;;9.65;8.57;;;;;;;;;;5072429;28;20320;-55
2022/10/13 06:52:58;;;;;;;12.45;8.85;;;;;;;;;;5072404;28;20189;-54
2022/10/13 06:55:25;;;;;;;13.70;9.03;;;;;;;;;;5072333;28;20473;-56
2022/10/13 06:57:53;;;;;;;12.88;9.65;;;;;;;;;;5072563;28;20471;-57
2022/10/13 07:00:20;;;;;;;13.40;9.85;;;;;;;;;;5072376;28;20223;-56
2022/10/13 07:02:50;;;;;;;16.67;9.10;;;;;;;;;;5072401;28;20233;-54
2022/10/13 07:05:16;;;;;;;9.20;8.23;;;;;;;;;;5072301;28;20456;-57
2022/10/13 07:07:43;;;;;;;13.52;9.75;;;;;;;;;;5072481;28;20462;-57
2022/10/13 07:10:10;;;;;;;16.40;9.98;;;;;;;;;;5083624;28;20185;-63
2022/10/13 07:12:37;;;;;;;15.65;11.07;;;;;;;;;;5074818;28;20188;-60
2022/10/13 07:15:06;;;;;;;18.03;10.63;;;;;;;;;;5094129;28;20199;-59
2022/10/13 07:17:33;;;;;;;19.77;12.35;;;;;;;;;;5092045;28;20975;-59
2022/10/13 07:20:01;;;;;;;10.83;9.53;;;;;;;;;;5077488;28;20221;-67
2022/10/13 07:22:28;;;;;;;21.97;11.63;;;;;;;;;;5076309;28;20483;-61
2022/10/13 07:24:55;;;;;;;16.02;10.95;;;;;;;;;;5079509;28;20550;-61
2022/10/13 07:27:22;;;;;;;12.52;11.15;;;;;;;;;;5079191;28;20201;-60
2022/10/13 07:29:49;;;;;;;15.95;11.43;;;;;;;;;;5076741;28;20200;-59
2022/10/13 07:32:18;;;;;;;19.75;12.00;;;;;;;;;;5075826;28;20581;-59
2022/10/13 07:34:44;;;;;;;12.70;9.68;;;;;;;;;;5075211;28;20185;-59
2022/10/13 07:37:11;;;;;;;20.07;10.10;;;;;;;;;;5076621;28;20267;-59
2022/10/13 07:39:38;;;;;;;14.13;9.60;;;;;;;;;;5075085;28;20487;-60
2022/10/13 07:42:05;;;;;;;12.53;9.10;;;;;;;;;;5083297;28;20450;-62
2022/10/13 07:44:32;;;;;;;14.33;9.60;;;;;;;;;;5091799;28;20552;-62
2022/10/13 07:46:59;;;;;;;11.97;9.57;;;;;;;;;;5078882;28;20919;-62
2022/10/13 07:49:27;;;;;;;11.23;9.00;;;;;;;;;;5075341;28;20550;-61
2022/10/13 07:51:54;;;;;;;12.57;9.07;;;;;;;;;;5075246;28;20501;-64
2022/10/13 07:54:21;;;;;;;10.20;9.20;;;;;;;;;;5081293;28;20463;-59
2022/10/13 07:56:52;;;;;;;14.17;10.07;;;;;;;;;;5077310;28;20546;-61
2022/10/13 07:59:19;;;;;;;11.77;8.83;;;;;;;;;;5077270;28;20889;-63
2022/10/13 08:01:46;;;;;;;17.87;9.23;;;;;;;;;;5077750;28;20540;-61
2022/10/13 08:04:13;;;;;;;10.98;9.30;;;;;;;;;;5076927;28;20452;-60
2022/10/13 08:06:41;;;;;;;19.90;9.63;;;;;;;;;;5087154;28;20185;-59
2022/10/13 08:09:08;;;;;;;15.77;8.57;;;;;;;;;;5087284;28;20487;-60
2022/10/13 08:11:36;;;;;;;12.70;8.40;;;;;;;;;;5077339;28;20185;-60
2022/10/13 08:14:03;;;;;;;10.87;8.97;;;;;;;;;;5080484;28;20830;-59
2022/10/13 08:16:30;;;;;;;11.33;8.63;;;;;;;;;;5084292;28;20454;-59
2022/10/13 08:18:57;;;;;;;11.70;8.80;;;;;;;;;;5080037;28;20545;-59
2022/10/13 08:21:24;;;;;;;12.80;8.97;;;;;;;;;;5086022;28;20448;-59
2022/10/13 08:23:52;;;;;;;13.00;9.07;;;;;;;;;;5082882;28;20463;-60
2022/10/13 08:26:21;;;;;;;13.75;8.88;;;;;;;;;;5078042;28;20446;-61
2022/10/13 08:28:48;;;;;;;15.27;10.10;;;;;;;;;;5082395;28;20280;-60
2022/10/13 08:31:15;;;;;;;9.80;8.47;;;;;;;;;;5076041;28;20455;-60
2022/10/13 08:33:46;;;;;;;12.17;8.70;;;;;;;;;;5077223;28;20548;-60
2022/10/13 08:36:13;;;;;;;11.07;8.90;;;;;;;;;;5092221;28;20893;-60
2022/10/13 08:38:40;;;;;;;13.33;9.83;;;;;;;;;;5088014;28;20455;-60
2022/10/13 08:41:14;;;;;;;10.27;8.10;;;;;;;;;;5074020;28;20570;-61
2022/10/13 08:43:41;;;;;;;10.77;8.50;;;;;;;;;;5077986;28;21020;-61
2022/10/13 08:46:09;;;;;;;12.33;8.33;;;;;;;;;;5081236;28;20799;-62
2022/10/13 08:48:38;;;;;;;13.77;8.53;;;;;;;;;;5082894;28;20470;-62
2022/10/13 08:51:06;;;;;;;11.67;8.97;;;;;;;;;;5082386;28;20454;-63
2022/10/13 08:53:34;;;;;;;14.57;8.07;;;;;;;;;;5089697;28;20478;-60
2022/10/13 08:56:05;;;;;;;11.87;8.13;;;;;;;;;;5091730;28;20184;-63
2022/10/13 08:58:34;;;;;;;13.27;9.27;;;;;;;;;;5083233;28;20969;-62
2022/10/13 09:01:11;;;;;;;13.33;8.77;;;;;;;;;;5093633;28;20569;-61
2022/10/13 09:03:44;;;;;;;12.30;9.53;;;;;;;;;;5090629;28;20801;-62
2022/10/13 09:06:13;;;;;;;11.53;8.40;;;;;;;;;;5073746;28;20462;-64
2022/10/13 09:08:43;;;;;;;12.00;9.83;;;;;;;;;;5073648;28;20489;-60
2022/10/13 09:11:11;;;;;;;17.27;8.10;;;;;;;;;;5077274;28;20481;-62
2022/10/13 09:13:39;;;;;;;11.40;7.47;;;;;;;;;;5074082;28;20450;-60
2022/10/13 09:16:06;;;;;;;9.73;7.97;;;;;;;;;;5080637;28;20284;-61
2022/10/13 09:18:34;;;;;;;13.00;8.60;;;;;;;;;;5088889;28;20476;-60
2022/10/13 09:21:11;;;;;;;9.87;8.33;;;;;;;;;;5112007;28;20516;-60
2022/10/13 09:23:38;;;;;;;18.43;9.80;;;;;;;;;;5083438;28;20547;-60
2022/10/13 09:26:07;;;;;;;10.20;9.15;;;;;;;;;;5072572;28;20482;-61
2022/10/13 09:28:34;;;;;;;10.33;8.97;;;;;;;;;;5078908;28;20189;-63
2022/10/13 09:31:04;;;;;;;16.00;10.10;;;;;;;;;;5073123;28;20448;-62
2022/10/13 09:33:34;;;;;;;16.10;9.50;;;;;;;;;;5072817;28;20992;-65
2022/10/13 09:36:12;;;;;;;21.10;9.77;;;;;;;;;;5075147;28;20546;-59
2022/10/13 09:38:40;;;;;;;13.97;8.70;;;;;;;;;;5072825;28;20447;-59
2022/10/13 09:41:12;;;;;;;11.17;9.00;;;;;;;;;;5079332;28;20482;-68
2022/10/13 09:43:42;;;;;;;14.27;9.10;;;;;;;;;;5089125;28;20542;-60
2022/10/13 09:46:19;;;;;;;9.70;7.77;;;;;;;;;;5080003;28;20977;-60
2022/10/13 09:48:49;;;;;;;13.73;8.80;;;;;;;;;;5073451;28;20475;-62
2022/10/13 09:51:29;;;;;;;12.80;9.30;;;;;;;;;;5074445;28;20461;-63
2022/10/13 09:53:56;;;;;;;10.13;9.03;;;;;;;;;;5074128;28;20451;-60
2022/10/13 09:56:26;;;;;;;13.13;10.27;;;;;;;;;;5080859;28;20453;-61
2022/10/13 09:58:55;;;;;;;11.23;9.43;;;;;;;;;;5079102;28;20549;-60
2022/10/13 10:01:26;;;;;;;15.57;9.33;;;;;;;;;;5087516;28;20574;-61
2022/10/13 10:03:54;;;;;;;10.43;9.33;;;;;;;;;;5082355;28;20464;-60
2022/10/13 10:06:21;;;;;;;14.85;9.63;;;;;;;;;;5073599;28;20958;-62
2022/10/13 10:08:52;;;;;;;12.17;9.50;;;;;;;;;;5079247;28;20217;-62
2022/10/13 10:11:20;;;;;;;13.70;9.33;;;;;;;;;;5072820;28;20479;-62
2022/10/13 10:13:47;;;;;;;14.30;9.02;;;;;;;;;;5072878;28;20894;-62
2022/10/13 10:16:19;;;;;;;10.43;8.90;;;;;;;;;;5072897;28;20644;-62
2022/10/13 10:18:49;;;;;;;15.63;9.60;;;;;;;;;;5072902;28;20455;-62
2022/10/13 10:21:23;;;;;;;10.00;9.00;;;;;;;;;;5072705;28;20479;-62
2022/10/13 10:23:54;;;;;;;16.70;10.07;;;;;;;;;;5072990;28;20534;-62
2022/10/13 10:26:24;;;;;;;11.33;9.30;;;;;;;;;;5072749;28;20204;-62
2022/10/13 10:28:57;;;;;;;16.83;9.87;;;;;;;;;;5072532;28;20936;-62
2022/10/13 10:31:33;;;;;;;14.20;9.87;;;;;;;;;;5072756;28;20458;-62
2022/10/13 10:34:07;;;;;;;12.23;9.10;;;;;;;;;;5072664;28;20447;-62
2022/10/13 10:36:41;;;;;;;10.80;9.70;;;;;;;;;;5072788;28;20447;-62
2022/10/13 10:39:13;;;;;;;11.90;9.80;;;;;;;;;;5072744;28;20223;-62
2022/10/13 10:41:45;;;;;;;11.87;9.97;;;;;;;;;;5072616;28;20997;-62
2022/10/13 10:44:14;;;;;;;12.63;9.20;;;;;;;;;;5072432;28;20535;-62
2022/10/13 10:46:44;;;;;;;14.68;10.15;;;;;;;;;;5073943;28;20455;-62
2022/10/13 10:49:16;;;;;;;11.13;9.93;;;;;;;;;;5076476;28;20259;-62
2022/10/13 10:51:43;;;;;;;17.83;11.87;;;;;;;;;;5076730;28;20541;-62
2022/10/13 10:54:17;;;;;;;16.10;10.97;;;;;;;;;;5076639;28;20443;-62
2022/10/13 10:56:47;;;;;;;14.17;10.17;;;;;;;;;;5076283;28;20453;-62
2022/10/13 10:59:23;;;;;;;15.53;11.10;;;;;;;;;;5076641;28;20454;-62
2022/10/13 11:01:53;;;;;;;13.27;10.57;;;;;;;;;;5076251;28;20515;-62
2022/10/13 11:04:32;;;;;;;13.03;10.37;;;;;;;;;;5076427;28;20447;-62
2022/10/13 11:06:59;;;;;;;13.23;9.23;;;;;;;;;;5076469;28;20443;-62
2022/10/13 11:09:44;;;;;;;15.10;10.27;;;;;;;;;;5076134;28;20439;-62
2022/10/13 11:12:22;;;;;;;12.67;10.43;;;;;;;;;;5075423;28;20539;-62
2022/10/13 11:15:02;;;;;;;15.60;10.52;;;;;;;;;;5076189;28;20538;-62
2022/10/13 11:17:29;;;;;;;17.27;11.40;;;;;;;;;;5076096;28;20220;-62
2022/10/13 11:19:58;;;;;;;11.00;9.77;;;;;;;;;;5076081;28;20880;-62
2022/10/13 11:22:26;;;;;;;13.37;9.57;;;;;;;;;;5075916;28;20447;-62
2022/10/13 11:25:10;;;;;;;13.80;9.33;;;;;;;;;;5075728;28;20481;-62
2022/10/13 11:27:39;;;;;;;13.37;9.60;;;;;;;;;;5062686;28;20439;-62
2022/10/13 11:30:26;;;;;;;13.33;9.63;;;;;;;;;;5075619;28;20439;-62
2022/10/13 11:32:55;;;;;;;13.73;9.00;;;;;;;;;;5075685;28;20443;-62
2022/10/13 11:35:26;;;;;;;9.87;8.87;;;;;;;;;;5075880;28;20810;-62
2022/10/13 11:38:04;;;;;;;13.33;9.53;;;;;;;;;;5075865;28;20981;-62
2022/10/13 11:40:33;;;;;;;12.03;9.73;;;;;;;;;;5075542;28;20483;-62
2022/10/13 11:43:14;;;;;;;11.63;9.20;;;;;;;;;;5075655;28;20459;-62
2022/10/13 11:45:48;;;;;;;14.37;10.00;;;;;;;;;;5075729;28;20542;-62
2022/10/13 11:48:36;;;;;;;12.53;10.00;;;;;;;;;;5075406;28;20475;-62
2022/10/13 11:51:09;;;;;;;17.87;10.47;;;;;;;;;;5075246;28;20461;-62
2022/10/13 11:53:42;;;;;;;14.10;10.13;;;;;;;;;;5075228;28;20510;-62
2022/10/13 11:56:19;;;;;;;14.90;10.40;;;;;;;;;;5075328;28;20448;-62
2022/10/13 11:58:46;;;;;;;11.47;10.17;;;;;;;;;;5075066;28;20447;-62
2022/10/13 12:01:14;;;;;;;11.40;10.30;;;;;;;;;;5075136;28;20474;-62
2022/10/13 12:03:42;;;;;;;11.07;9.70;;;;;;;;;;5075073;28;20443;-62
2022/10/13 12:06:21;;;;;;;10.93;9.90;;;;;;;;;;5075041;28;20250;-62
2022/10/13 12:08:50;;;;;;;14.10;10.80;;;;;;;;;;5075206;28;20448;-62
2022/10/13 12:11:23;;;;;;;15.40;11.20;;;;;;;;;;5075096;28;20458;-62
2022/10/13 12:13:50;;;;;;;11.43;9.30;;;;;;;;;;5074989;28;20502;-62
2022/10/13 12:16:17;;;;;;;15.80;11.00;;;;;;;;;;5075276;28;20544;-62
2022/10/13 12:18:44;;;;;;;15.27;10.57;;;;;;;;;;5074947;28;20497;-62
2022/10/13 12:21:12;;;;;;;12.93;9.10;;;;;;;;;;5074902;28;20632;-62
2022/10/13 12:23:40;;;;;;;10.13;9.13;;;;;;;;;;5074897;28;20448;-62
2022/10/13 12:26:07;;;;;;;11.10;8.03;;;;;;;;;;5074742;28;20457;-62
2022/10/13 12:28:46;;;;;;;12.02;8.52;;;;;;;;;;5074662;28;20882;-62
2022/10/13 12:31:18;;;;;;;15.23;7.70;;;;;;;;;;5074867;28;20225;-62
2022/10/13 12:33:52;;;;;;;11.47;7.27;;;;;;;;;;5074799;28;20494;-62
2022/10/13 12:36:20;;;;;;;11.67;7.77;;;;;;;;;;5074546;28;20447;-62
2022/10/13 12:38:50;;;;;;;11.23;7.23;;;;;;;;;;5074532;28;20447;-62
2022/10/13 12:41:18;;;;;;;11.53;8.10;;;;;;;;;;5074289;28;20475;-62
2022/10/13 12:43:45;;;;;;;8.93;7.45;;;;;;;;;;5074460;28;20458;-62
2022/10/13 12:46:12;;;;;;;10.37;9.00;;;;;;;;;;5074238;28;20691;-62
2022/10/13 12:48:39;;;;;;;11.83;8.20;;;;;;;;;;5074250;28;20479;-62
2022/10/13 12:51:15;;;;;;;11.23;9.07;;;;;;;;;;5074332;28;20504;-62
2022/10/13 12:53:43;;;;;;;13.40;9.02;;;;;;;;;;5074474;28;20449;-62
2022/10/13 12:56:19;;;;;;;8.60;7.73;;;;;;;;;;5074298;28;20190;-62
2022/10/13 12:58:46;;;;;;;8.43;7.60;;;;;;;;;;5074286;28;20447;-62
2022/10/13 13:01:29;;;;;;;13.37;10.00;;;;;;;;;;5074009;28;20486;-62
2022/10/13 13:03:58;;;;;;;12.30;8.80;;;;;;;;;;5073944;28;20465;-62
2022/10/13 13:06:36;;;;;;;9.73;8.77;;;;;;;;;;5074198;28;20450;-63
2022/10/13 13:09:27;;;;;;;11.33;8.30;;;;;;;;;;5073522;28;20457;-62
2022/10/13 13:12:18;;;;;;;14.53;10.70;;;;;;;;;;5073981;28;20447;-62
2022/10/13 13:14:48;;;;;;;14.57;10.07;;;;;;;;;;5053848;28;20810;-62
2022/10/13 13:17:15;;;;;;;15.20;11.03;;;;;;;;;;5073915;28;20447;-62
2022/10/13 13:19:43;;;;;;;18.13;11.30;;;;;;;;;;5073630;28;20538;-62
2022/10/13 13:22:10;;;;;;;18.23;11.00;;;;;;;;;;5073586;28;20479;-62
2022/10/13 13:24:37;;;;;;;11.93;9.10;;;;;;;;;;5073482;28;20490;-62
2022/10/13 13:27:19;;;;;;;14.97;10.37;;;;;;;;;;5073469;28;20539;-62
2022/10/13 13:29:47;;;;;;;14.20;10.47;;;;;;;;;;5070764;28;20453;-62
2022/10/13 13:32:15;;;;;;;15.07;10.70;;;;;;;;;;5073531;28;20530;-62
2022/10/13 13:34:42;;;;;;;13.30;11.27;;;;;;;;;;5073458;28;20495;-62
2022/10/13 13:37:12;;;;;;;11.20;9.13;;;;;;;;;;5073315;28;20965;-62
2022/10/13 13:39:39;;;;;;;12.17;9.70;;;;;;;;;;5073358;28;20954;-62
2022/10/13 13:42:06;;;;;;;12.40;10.00;;;;;;;;;;5073446;28;20483;-62
2022/10/13 13:44:33;;;;;;;11.67;8.80;;;;;;;;;;5073414;28;20481;-62
2022/10/13 13:47:01;;;;;;;10.00;9.00;;;;;;;;;;5073108;28;20818;-62
2022/10/13 13:49:28;;;;;;;15.30;10.17;;;;;;;;;;5073108;28;20487;-62
2022/10/13 13:51:55;;;;;;;12.63;10.90;;;;;;;;;;5073106;28;20448;-62
2022/10/13 13:54:22;;;;;;;10.70;9.70;;;;;;;;;;5073243;28;20193;-62
2022/10/13 13:56:49;;;;;;;21.33;11.03;;;;;;;;;;5073266;28;20867;-62
2022/10/13 13:59:16;;;;;;;12.73;10.07;;;;;;;;;;5073138;28;20447;-63
2022/10/13 14:01:43;;;;;;;10.70;9.60;;;;;;;;;;5072969;28;20561;-63
2022/10/13 14:04:11;;;;;;;14.67;10.00;;;;;;;;;;5072947;28;20475;-62
2022/10/13 14:06:38;;;;;;;12.67;10.10;;;;;;;;;;5072823;28;21002;-62
2022/10/13 14:09:05;;;;;;;13.00;10.00;;;;;;;;;;5072765;28;20443;-62
2022/10/13 14:11:32;;;;;;;12.27;9.93;;;;;;;;;;5072849;28;21037;-62
2022/10/13 14:14:00;;;;;;;13.63;9.70;;;;;;;;;;5072852;28;20542;-62
2022/10/13 14:16:27;;;;;;;11.40;10.20;;;;;;;;;;5072829;28;20459;-62
2022/10/13 14:18:56;;;;;;;13.38;9.88;;;;;;;;;;5072676;28;20454;-62
2022/10/13 14:21:24;;;;;;;10.93;9.90;;;;;;;;;;5071998;28;20220;-62
2022/10/13 14:23:51;;;;;;;13.57;11.57;;;;;;;;;;5072906;28;20456;-62
2022/10/13 14:26:18;;;;;;;13.43;9.80;;;;;;;;;;5072867;28;20859;-62
2022/10/13 14:28:45;;;;;;;12.30;10.20;;;;;;;;;;5072706;28;20516;-62
2022/10/13 14:31:12;;;;;;;11.63;9.57;;;;;;;;;;5072646;28;20444;-62
2022/10/13 14:33:39;;;;;;;9.30;8.40;;;;;;;;;;5072723;28;20541;-62
2022/10/13 14:36:07;;;;;;;15.03;9.60;;;;;;;;;;5072826;28;20455;-62
2022/10/13 14:38:35;;;;;;;11.03;9.53;;;;;;;;;;5072763;28;20538;-62
2022/10/13 14:41:03;;;;;;;11.77;9.03;;;;;;;;;;5072695;28;20483;-62
2022/10/13 14:43:30;;;;;;;14.40;10.80;;;;;;;;;;5072624;28;20443;-62